Time;durP1;ratioP1;P1;durP2;ratioP2;P2;SDS_P1;SDS_P2;PMS_P1;PMS_P2;Temp;Humidity;BMP_temperature;BMP_pressure;BME280_temperature;BME280_humidity;BME280_pressure;Samples;Min_cycle;Max_cycle;Signal;HPM_P1;HPM_P2
2023/05/31 00:01:35;;;;;;;15.43;6.47;;;9.40;76.10;;;;;;6139205;23;20436;-91
2023/05/31 00:04:10;;;;;;;17.67;5.97;;;9.30;76.10;;;;;;6150252;23;20024;-91
2023/05/31 00:06:57;;;;;;;11.47;5.87;;;9.30;76.10;;;;;;6155785;23;20051;-92
2023/05/31 00:09:23;;;;;;;11.50;5.23;;;9.20;76.10;;;;;;6160866;23;20024;-91
2023/05/31 00:11:51;;;;;;;12.63;6.10;;;9.20;76.10;;;;;;6162911;23;20525;-91
2023/05/31 00:14:20;;;;;;;11.07;6.00;;;9.20;76.20;;;;;;6161011;23;20024;-92
2023/05/31 00:16:45;;;;;;;15.77;5.97;;;9.20;76.10;;;;;;6153545;23;20092;-92
2023/05/31 00:19:26;;;;;;;12.27;5.67;;;9.20;76.20;;;;;;6185438;23;20370;-91
2023/05/31 00:21:51;;;;;;;13.60;6.20;;;9.10;76.20;;;;;;6165046;23;20466;-91
2023/05/31 00:24:17;;;;;;;11.00;5.70;;;9.10;76.30;;;;;;6163046;23;20024;-91
2023/05/31 00:26:43;;;;;;;11.60;5.77;;;9.10;76.40;;;;;;6158013;23;20020;-92
2023/05/31 00:29:09;;;;;;;14.47;6.57;;;9.00;76.30;;;;;;6137096;23;20020;-91
2023/05/31 00:31:41;;;;;;;11.50;6.10;;;9.00;76.30;;;;;;6163145;23;20016;-91
2023/05/31 00:34:10;;;;;;;;;;;9.00;76.40;;;;;;6160793;23;20024;-92
2023/05/31 00:36:39;;;;;;;16.43;7.93;;;9.00;76.50;;;;;;6157651;23;19950;-91
2023/05/31 00:39:10;;;;;;;14.13;7.03;;;9.00;76.40;;;;;;6161374;23;20023;-91
2023/05/31 00:41:36;;;;;;;12.30;6.43;;;9.00;76.40;;;;;;6138662;23;20016;-91
2023/05/31 00:44:10;;;;;;;12.57;6.23;;;8.90;76.40;;;;;;6160910;23;20489;-91
2023/05/31 00:46:53;;;;;;;13.70;6.20;;;8.90;76.40;;;;;;6157007;23;20016;-93
2023/05/31 00:49:22;;;;;;;11.27;6.80;;;8.90;76.40;;;;;;6148047;23;20051;-91
2023/05/31 00:51:48;;;;;;;12.67;6.10;;;8.90;76.40;;;;;;6138180;23;20056;-91
2023/05/31 00:54:17;;;;;;;13.07;6.67;;;8.90;76.40;;;;;;6170359;23;20342;-92
2023/05/31 00:56:43;;;;;;;13.03;6.80;;;8.90;76.40;;;;;;6156431;23;20008;-93
2023/05/31 00:59:16;;;;;;;14.57;6.67;;;8.80;76.40;;;;;;6159559;23;20070;-92
2023/05/31 01:01:42;;;;;;;17.00;6.80;;;8.80;76.50;;;;;;6162985;23;20043;-92
2023/05/31 01:04:14;;;;;;;17.33;7.37;;;8.80;76.50;;;;;;6160758;23;20027;-92
2023/05/31 01:06:40;;;;;;;18.00;7.27;;;8.80;76.70;;;;;;6132269;23;20606;-92
2023/05/31 01:09:09;;;;;;;12.87;7.00;;;8.80;76.80;;;;;;6159298;23;20031;-91
2023/05/31 01:11:51;;;;;;;13.53;7.23;;;8.80;76.70;;;;;;6162508;23;20020;-91
2023/05/31 01:14:33;;;;;;;18.10;8.03;;;8.80;76.90;;;;;;6146256;23;20024;-91
2023/05/31 01:17:40;;;;;;;14.68;6.95;;;8.80;76.90;;;;;;6155644;23;20518;-91
2023/05/31 01:20:11;;;;;;;17.40;7.50;;;8.80;77.10;;;;;;6161796;23;20029;-92
2023/05/31 01:22:58;;;;;;;16.55;7.75;;;8.80;77.10;;;;;;6160960;23;20029;-91
2023/05/31 01:25:53;;;;;;;17.03;8.40;;;8.80;77.20;;;;;;6162560;23;20455;-92
2023/05/31 01:28:19;;;;;;;16.00;8.27;;;8.90;77.20;;;;;;6153173;23;20031;-92
2023/05/31 01:30:53;;;;;;;18.27;9.03;;;8.80;77.20;;;;;;6162772;23;20017;-91
2023/05/31 01:33:22;;;;;;;16.00;8.13;;;8.90;77.20;;;;;;6160518;23;20494;-92
2023/05/31 01:35:51;;;;;;;21.37;8.50;;;8.90;77.30;;;;;;6138514;23;20024;-91
2023/05/31 01:38:22;;;;;;;18.33;9.23;;;8.90;77.20;;;;;;6155646;23;20022;-92
2023/05/31 01:40:55;;;;;;;18.08;9.00;;;8.90;77.30;;;;;;6161650;23;20016;-92
2023/05/31 01:43:35;;;;;;;16.17;9.00;;;8.80;77.40;;;;;;6140246;23;20052;-91
2023/05/31 01:46:02;;;;;;;14.53;6.63;;;8.90;77.50;;;;;;6162469;23;20021;-92
2023/05/31 01:48:31;;;;;;;17.77;8.93;;;8.80;77.50;;;;;;6123377;23;20607;-92
2023/05/31 01:50:59;;;;;;;21.37;9.37;;;8.80;77.70;;;;;;6162230;23;20024;-93
2023/05/31 01:53:25;;;;;;;22.17;10.33;;;8.90;77.70;;;;;;6160039;23;20029;-90
2023/05/31 01:55:58;;;;;;;20.43;10.07;;;8.90;77.80;;;;;;6138689;23;20023;-91
2023/05/31 01:58:29;;;;;;;27.50;10.47;;;8.90;77.80;;;;;;6137472;23;20120;-91
2023/05/31 02:00:55;;;;;;;;;;;8.90;77.80;;;;;;6163111;23;20096;-92
2023/05/31 02:03:26;;;;;;;21.17;10.03;;;8.80;78.20;;;;;;6159906;23;19947;-93
2023/05/31 02:06:01;;;;;;;;;;;8.80;77.80;;;;;;6163123;23;20100;-93
2023/05/31 02:08:27;;;;;;;20.63;10.13;;;8.80;78.30;;;;;;6153394;23;19923;-92
2023/05/31 02:10:54;;;;;;;29.27;11.53;;;8.80;77.80;;;;;;6162299;23;20052;-91
2023/05/31 02:13:30;;;;;;;19.90;10.23;;;8.80;77.80;;;;;;6160801;23;20025;-92
2023/05/31 02:15:59;;;;;;;29.43;12.07;;;8.70;77.90;;;;;;6161988;23;20021;-92
2023/05/31 02:18:31;;;;;;;26.40;10.93;;;8.70;78.00;;;;;;6153459;23;20024;-92
2023/05/31 02:20:57;;;;;;;23.60;11.43;;;8.70;78.00;;;;;;6187701;23;20056;-91
2023/05/31 02:23:30;;;;;;;24.17;11.67;;;8.60;78.00;;;;;;6149010;23;20032;-92
2023/05/31 02:25:56;;;;;;;23.13;11.10;;;8.60;78.00;;;;;;6186972;23;20017;-91
2023/05/31 02:28:22;;;;;;;22.97;10.27;;;8.60;78.10;;;;;;6104705;23;20092;-92
2023/05/31 02:30:58;;;;;;;27.33;10.77;;;8.60;78.10;;;;;;6162799;23;20016;-91
2023/05/31 02:33:30;;;;;;;20.73;10.50;;;8.60;78.20;;;;;;6161232;23;20028;-92
2023/05/31 02:36:02;;;;;;;26.37;11.50;;;8.60;78.10;;;;;;6161996;23;20039;-92
2023/05/31 02:38:28;;;;;;;;;;;8.60;78.20;;;;;;6132785;23;20020;-92
2023/05/31 02:40:54;;;;;;;20.27;11.00;;;8.60;78.20;;;;;;6162887;23;19915;-92
2023/05/31 02:43:26;;;;;;;24.93;10.07;;;8.50;78.00;;;;;;6162423;23;20016;-91
2023/05/31 02:45:51;;;;;;;20.13;10.40;;;8.50;78.00;;;;;;6163930;23;20083;-92
2023/05/31 02:48:17;;;;;;;22.87;10.17;;;8.50;78.00;;;;;;6151301;23;20024;-91
2023/05/31 02:50:46;;;;;;;22.03;10.30;;;8.40;78.00;;;;;;6139476;23;20025;-90
2023/05/31 02:53:15;;;;;;;19.90;10.03;;;8.50;78.10;;;;;;6161530;23;20035;-91
2023/05/31 02:55:47;;;;;;;27.20;10.90;;;8.40;78.10;;;;;;6139772;23;20013;-92
2023/05/31 02:58:16;;;;;;;19.87;10.57;;;8.40;78.10;;;;;;6137683;23;20028;-92
2023/05/31 03:00:42;;;;;;;22.50;10.90;;;8.40;78.10;;;;;;6139582;23;20099;-92
2023/05/31 03:03:13;;;;;;;20.63;9.93;;;8.40;78.10;;;;;;6161887;23;20467;-91
2023/05/31 03:05:43;;;;;;;21.03;10.10;;;8.40;78.10;;;;;;6114714;23;20017;-91
2023/05/31 03:08:14;;;;;;;21.90;10.23;;;8.30;78.10;;;;;;6142835;23;20027;-92
2023/05/31 03:10:40;;;;;;;14.23;7.85;;;8.30;78.20;;;;;;6139914;23;20016;-92
2023/05/31 03:13:12;;;;;;;16.93;10.63;;;8.30;78.10;;;;;;6162316;23;20024;-91
2023/05/31 03:15:38;;;;;;;;;;;8.30;78.10;;;;;;6163457;23;20024;-91
2023/05/31 03:18:09;;;;;;;17.87;10.03;;;8.30;78.30;;;;;;6115719;23;20243;-91
2023/05/31 03:20:40;;;;;;;26.00;10.40;;;8.30;78.20;;;;;;6163730;23;20023;-91
2023/05/31 03:23:23;;;;;;;27.20;10.80;;;8.30;78.20;;;;;;6123198;23;20060;-92
2023/05/31 03:25:57;;;;;;;20.97;10.63;;;8.30;78.20;;;;;;6163893;23;20017;-91
2023/05/31 03:28:31;;;;;;;23.23;10.23;;;8.30;78.40;;;;;;6135493;23;20028;-92
2023/05/31 03:31:03;;;;;;;18.55;10.90;;;8.30;78.40;;;;;;6163530;23;20077;-92
2023/05/31 03:33:36;;;;;;;20.47;10.20;;;8.30;78.40;;;;;;6137065;23;20021;-90
2023/05/31 03:36:06;;;;;;;19.97;9.57;;;8.30;78.30;;;;;;6140209;23;20021;-91
2023/05/31 03:38:31;;;;;;;17.07;9.03;;;8.30;78.20;;;;;;6156856;23;20078;-92
2023/05/31 03:41:07;;;;;;;;;;;;;;;;;;;;;
2023/05/31 03:43:33;;;;;;;21.10;8.90;;;8.30;78.20;;;;;;6169230;23;20020;-92
2023/05/31 03:46:02;;;;;;;19.90;9.33;;;8.30;78.30;;;;;;6163801;23;20164;-91
2023/05/31 03:48:28;;;;;;;16.30;8.37;;;8.30;78.30;;;;;;6140090;23;20024;-91
2023/05/31 03:50:55;;;;;;;17.83;9.70;;;8.30;78.40;;;;;;6163838;23;20016;-91
2023/05/31 03:53:35;;;;;;;23.83;10.53;;;8.30;78.40;;;;;;6161282;23;20017;-91
2023/05/31 03:56:01;;;;;;;21.03;8.90;;;8.30;78.50;;;;;;6139596;23;20013;-92
2023/05/31 03:58:30;;;;;;;20.07;10.00;;;8.40;78.60;;;;;;6138965;23;20490;-91
2023/05/31 04:00:56;;;;;;;23.73;10.37;;;8.40;78.70;;;;;;6163825;23;20021;-92
2023/05/31 04:03:25;;;;;;;23.17;9.97;;;8.40;78.90;;;;;;6150588;23;20027;-94
2023/05/31 04:06:03;;;;;;;;;;;8.50;78.90;;;;;;6165178;23;20387;-91
2023/05/31 04:08:40;;;;;;;24.10;9.83;;;8.50;79.20;;;;;;6135799;23;19915;-92
2023/05/31 04:11:09;;;;;;;20.17;10.10;;;8.60;78.90;;;;;;6140883;23;20055;-92
2023/05/31 04:14:00;;;;;;;23.87;10.00;;;8.60;78.80;;;;;;6175332;23;20028;-92
2023/05/31 04:16:34;;;;;;;23.03;10.00;;;8.60;78.70;;;;;;6157244;23;20393;-93
2023/05/31 04:19:07;;;;;;;25.33;10.10;;;8.60;78.70;;;;;;6163338;23;20044;-93
2023/05/31 04:21:53;;;;;;;21.67;8.87;;;8.60;78.80;;;;;;6143653;23;20024;-91
2023/05/31 04:24:58;;;;;;;;;;;;;;;;;;;;;
2023/05/31 04:27:42;;;;;;;17.83;9.20;;;8.70;78.90;;;;;;6173564;23;20027;-92
2023/05/31 04:30:33;;;;;;;;;;;;;;;;;;;;;
2023/05/31 04:32:59;;;;;;;22.52;9.48;;;8.80;78.90;;;;;;6170303;23;20136;-91
2023/05/31 04:35:30;;;;;;;18.37;9.77;;;8.90;79.00;;;;;;6163479;23;20048;-92
2023/05/31 04:41:18;;;;;;;24.80;10.20;;;9.00;79.10;;;;;;6151437;23;20027;-92
2023/05/31 04:43:52;;;;;;;26.97;10.60;;;9.00;79.10;;;;;;6156574;23;20052;-92
2023/05/31 04:46:19;;;;;;;22.87;10.70;;;9.10;79.10;;;;;;6161967;23;20074;-93
2023/05/31 04:48:52;;;;;;;21.97;10.40;;;9.20;79.20;;;;;;6145792;23;20043;-92
2023/05/31 04:51:21;;;;;;;20.27;10.63;;;9.30;79.20;;;;;;6139165;23;20021;-92
2023/05/31 04:54:09;;;;;;;26.43;11.37;;;9.40;79.30;;;;;;6131545;23;20021;-92
2023/05/31 04:56:42;;;;;;;25.00;11.37;;;9.50;79.30;;;;;;6179385;23;20024;-93
2023/05/31 04:59:14;;;;;;;24.70;11.40;;;9.60;79.30;;;;;;6133462;23;20021;-92
2023/05/31 05:01:47;;;;;;;23.63;12.03;;;9.70;79.30;;;;;;6186753;23;20047;-93
2023/05/31 05:04:37;;;;;;;29.38;11.65;;;9.80;79.70;;;;;;6158440;23;20024;-93
2023/05/31 05:07:11;;;;;;;27.58;12.48;;;10.10;80.40;;;;;;6153441;23;20631;-92
2023/05/31 05:09:40;;;;;;;27.58;12.00;;;10.40;80.50;;;;;;6160239;23;20025;-92
2023/05/31 05:12:33;;;;;;;30.38;11.82;;;10.60;80.40;;;;;;6146229;23;20098;-93
2023/05/31 05:15:25;;;;;;;26.40;11.77;;;10.90;80.50;;;;;;6141529;23;20013;-92
2023/05/31 05:18:09;;;;;;;24.60;11.43;;;11.10;80.30;;;;;;6117302;23;20047;-92
2023/05/31 05:20:38;;;;;;;23.15;11.02;;;11.50;80.50;;;;;;6187584;23;20096;-92
2023/05/31 05:23:28;;;;;;;31.70;12.00;;;11.70;80.10;;;;;;6131160;23;20036;-92
2023/05/31 05:26:02;;;;;;;29.92;11.38;;;11.90;79.80;;;;;;6162272;23;20080;-92
2023/05/31 05:28:53;;;;;;;23.13;10.63;;;12.20;79.80;;;;;;6143226;23;20075;-92
2023/05/31 05:31:57;;;;;;;24.38;10.00;;;12.50;79.70;;;;;;6140067;23;20016;-93
2023/05/31 05:34:26;;;;;;;23.10;9.23;;;12.70;79.20;;;;;;6141659;23;20470;-93
2023/05/31 05:37:37;;;;;;;19.27;9.30;;;13.00;79.10;;;;;;6124856;23;20017;-94
2023/05/31 05:44:21;;;;;;;16.88;7.70;;;13.70;78.30;;;;;;6126442;23;20457;-93
2023/05/31 05:47:44;;;;;;;;;;;;;;;;;;;;;
2023/05/31 05:50:28;;;;;;;12.52;6.25;;;14.20;77.00;;;;;;6069189;23;20025;-93
2023/05/31 05:57:15;;;;;;;19.35;6.75;;;14.30;76.60;;;;;;6147228;23;20076;-93
2023/05/31 06:00:25;;;;;;;;;;;;;;;;;;;;;
2023/05/31 06:03:08;;;;;;;13.18;5.47;;;14.10;76.60;;;;;;6144061;23;20052;-93
2023/05/31 06:10:19;;;;;;;12.13;4.78;;;14.40;76.90;;;;;;6025407;23;20123;-93
2023/05/31 06:14:00;;;;;;;;;;;;;;;;;;;;;
2023/05/31 06:17:38;;;;;;;;;;;;;;;;;;;;;
2023/05/31 06:20:51;;;;;;;13.68;4.55;;;14.60;75.40;;;;;;5982107;23;20093;-93
2023/05/31 06:24:53;;;;;;;;;;;;;;;;;;;;;
2023/05/31 06:27:57;;;;;;;;;;;;;;;;;;;;;
2023/05/31 06:31:38;;;;;;;11.57;3.55;;;14.60;75.10;;;;;;5858253;24;20022;-94
2023/05/31 06:38:47;;;;;;;;;;;;;;;;;;;;;
2023/05/31 07:08:54;;;;;;;;;;;;;;;;;;;;;
2023/05/31 07:26:55;;;;;;;5.65;2.33;;;15.20;73.90;;;;;;5745766;24;20042;-96
2023/05/31 07:29:51;;;;;;;6.97;2.55;;;15.20;73.90;;;;;;5932838;23;20355;-93
2023/05/31 07:32:26;;;;;;;8.20;3.00;;;15.40;74.00;;;;;;5970714;23;20897;-94
2023/05/31 07:35:00;;;;;;;15.48;2.83;;;15.60;73.80;;;;;;5971215;23;20123;-93
2023/05/31 07:37:36;;;;;;;8.25;3.10;;;15.60;73.60;;;;;;6061829;23;20100;-93
2023/05/31 07:40:15;;;;;;;10.32;2.70;;;15.60;73.30;;;;;;6167418;23;20119;-92
2023/05/31 07:42:45;;;;;;;6.68;2.55;;;15.60;73.30;;;;;;6161244;23;20623;-92
2023/05/31 07:45:14;;;;;;;9.10;2.67;;;15.60;73.40;;;;;;6197942;23;20024;-93
2023/05/31 07:47:56;;;;;;;;;;;;;;;;;;;;;
2023/05/31 07:50:25;;;;;;;9.23;3.13;;;15.60;73.10;;;;;;6199935;23;20027;-91
2023/05/31 07:52:53;;;;;;;7.78;2.65;;;15.50;72.90;;;;;;6132195;22;20856;-94
2023/05/31 07:55:19;;;;;;;6.80;2.95;;;15.50;73.10;;;;;;6200878;22;20012;-94
2023/05/31 07:58:19;;;;;;;7.57;3.22;;;15.60;73.10;;;;;;6165192;23;20536;-92
2023/05/31 08:00:58;;;;;;;;;;;;;;;;;;;;;
2023/05/31 08:05:05;;;;;;;;;;;;;;;;;;;;;
2023/05/31 08:08:13;;;;;;;7.93;3.13;;;15.70;72.90;;;;;;6133667;23;20080;-93
2023/05/31 08:11:38;;;;;;;8.38;3.05;;;15.80;72.70;;;;;;6168663;22;20081;-93
2023/05/31 08:13:48;;;;;;;6.60;2.70;;;15.90;72.80;;;;;;6181976;22;20453;-92
2023/05/31 08:16:31;;;;;;;9.20;2.85;;;16.00;72.60;;;;;;6150818;22;20015;-94
2023/05/31 08:18:57;;;;;;;5.80;2.58;;;16.00;72.20;;;;;;6151072;22;20035;-92
2023/05/31 08:21:26;;;;;;;5.70;2.75;;;16.10;72.40;;;;;;6185997;22;20024;-94
2023/05/31 08:24:13;;;;;;;14.52;2.75;;;16.20;72.30;;;;;;6191044;22;20040;-93
2023/05/31 08:26:45;;;;;;;8.40;2.88;;;16.20;72.20;;;;;;6230756;22;20050;-94
2023/05/31 08:29:11;;;;;;;6.72;2.83;;;16.20;72.20;;;;;;6136633;22;20109;-93
2023/05/31 08:31:37;;;;;;;15.23;3.72;;;16.30;72.30;;;;;;6204352;22;20024;-92
2023/05/31 08:34:24;;;;;;;11.70;3.13;;;16.40;72.20;;;;;;6177747;22;20091;-92
2023/05/31 08:48:41;;;;;;;16.67;4.57;;;16.00;72.30;;;;;;6192756;22;20044;-96
2023/05/31 08:51:36;;;;;;;14.50;4.43;;;16.00;71.70;;;;;;6115307;23;20056;-95
2023/05/31 09:00:46;;;;;;;17.27;4.90;;;15.80;72.00;;;;;;6120341;23;20087;-95
2023/05/31 09:03:27;;;;;;;11.73;4.60;;;15.80;72.10;;;;;;6120149;23;20103;-92
2023/05/31 09:06:19;;;;;;;14.65;4.53;;;15.90;72.00;;;;;;6179835;23;20020;-92
2023/05/31 09:17:35;;;;;;;13.15;5.45;;;15.70;71.40;;;;;;5966399;24;20072;-96
2023/05/31 09:20:54;;;;;;;16.70;5.63;;;15.60;71.80;;;;;;5905326;24;20016;-94
2023/05/31 09:24:24;;;;;;;13.55;5.10;;;15.60;71.50;;;;;;5802697;24;20038;-93
2023/05/31 09:35:02;;;;;;;;;;;;;;;;;;;;;
2023/05/31 09:38:40;;;;;;;10.95;5.50;;;15.40;70.80;;;;;;5696872;25;20029;-96
2023/05/31 10:03:54;;;;;;;;;;;;;;;;;;;;;
2023/05/31 10:17:13;;;;;;;11.25;6.53;;;14.70;71.30;;;;;;6276597;22;1615544;-95
2023/05/31 10:20:10;;;;;;;;;;;;;;;;;;;;;
2023/05/31 10:27:39;;;;;;;12.55;6.72;;;15.00;71.20;;;;;;6082752;23;20619;-95
2023/05/31 10:30:14;;;;;;;11.15;7.22;;;15.10;71.70;;;;;;6002839;23;20633;-96
2023/05/31 10:37:20;;;;;;;14.95;6.40;;;15.20;71.10;;;;;;6029563;23;20231;-92
2023/05/31 10:40:33;;;;;;;10.55;6.00;;;15.20;71.20;;;;;;6149902;23;20020;-94
2023/05/31 10:47:42;;;;;;;13.45;5.07;;;15.30;70.60;;;;;;6199788;22;20047;-95
2023/05/31 10:50:23;;;;;;;15.63;5.40;;;15.40;70.60;;;;;;6104630;23;20893;-94
2023/05/31 10:53:12;;;;;;;10.35;5.13;;;15.30;70.50;;;;;;6140948;23;20029;-93
2023/05/31 10:59:54;;;;;;;12.95;4.88;;;15.30;70.80;;;;;;5907628;24;20190;-95
2023/05/31 11:02:46;;;;;;;22.77;5.05;;;15.40;70.90;;;;;;5949850;24;20672;-95
2023/05/31 11:10:20;;;;;;;;;;;;;;;;;;;;;
2023/05/31 11:17:03;;;;;;;;;;;;;;;;;;;;;
2023/05/31 11:19:51;;;;;;;;;;;;;;;;;;;;;
2023/05/31 11:30:03;;;;;;;;;;;;;;;;;;;;;
2023/05/31 11:33:32;;;;;;;;;;;;;;;;;;;;;
2023/05/31 11:37:28;;;;;;;11.55;5.25;;;15.80;70.30;;;;;;6091626;23;20021;-94
2023/05/31 11:40:15;;;;;;;13.20;5.93;;;15.80;69.60;;;;;;5998356;23;20521;-93
2023/05/31 11:46:51;;;;;;;12.43;4.53;;;15.80;69.80;;;;;;5907707;24;20029;-95
2023/05/31 11:49:31;;;;;;;12.02;5.03;;;15.80;70.30;;;;;;5946062;23;20033;-92
2023/05/31 11:56:42;;;;;;;16.63;4.85;;;16.00;70.00;;;;;;6017384;23;20145;-93
2023/05/31 12:06:21;;;;;;;14.95;4.07;;;16.00;69.60;;;;;;5820824;24;20051;-93
2023/05/31 12:20:17;;;;;;;12.60;3.58;;;16.00;69.20;;;;;;5742483;25;20044;-94
2023/05/31 12:22:47;;;;;;;9.63;3.63;;;16.00;68.40;;;;;;5725188;25;20043;-96
2023/05/31 12:25:31;;;;;;;8.65;3.78;;;16.00;69.30;;;;;;5722774;25;20088;-89
2023/05/31 12:35:27;;;;;;;10.55;4.80;;;16.00;68.50;;;;;;5800319;24;20080;-94
2023/05/31 12:42:19;;;;;;;12.23;5.45;;;16.00;68.60;;;;;;5823082;24;20070;-94
2023/05/31 12:45:44;;;;;;;10.95;4.80;;;15.80;68.50;;;;;;5818373;24;20030;-93
2023/05/31 13:05:29;;;;;;;14.65;5.47;;;15.80;69.10;;;;;;6260180;22;20034;-93
2023/05/31 13:08:45;;;;;;;11.98;5.53;;;15.90;69.00;;;;;;5398777;22;17831599;-92
2023/05/31 13:11:48;;;;;;;;;;;;;;;;;;;;;
2023/05/31 13:18:18;;;;;;;10.07;4.00;;;15.80;68.70;;;;;;6160675;23;20107;-92
2023/05/31 13:21:35;;;;;;;;;;;;;;;;;;;;;
2023/05/31 13:46:36;;;;;;;12.90;3.70;;;15.80;68.80;;;;;;5537421;22;15080999;-96
2023/05/31 13:57:51;;;;;;;8.70;3.63;;;15.80;68.30;;;;;;6092919;23;20021;-96
2023/05/31 14:08:08;;;;;;;;;;;;;;;;;;;;;
2023/05/31 14:18:31;;;;;;;7.57;3.05;;;16.00;68.00;;;;;;6002461;24;20131;-96
2023/05/31 14:35:49;;;;;;;10.35;2.78;;;15.80;68.20;;;;;;5891485;24;19915;-96
2023/05/31 15:00:14;;;;;;;6.82;3.38;;;15.80;68.10;;;;;;5857891;24;20073;-96
2023/05/31 15:07:35;;;;;;;6.75;2.88;;;15.80;67.50;;;;;;5874035;24;20022;-96
2023/05/31 15:10:30;;;;;;;6.72;2.78;;;15.40;67.90;;;;;;5820711;24;20019;-93
2023/05/31 15:16:55;;;;;;;7.93;3.70;;;15.40;68.30;;;;;;5737006;24;20219;-96
2023/05/31 15:19:38;;;;;;;8.05;3.92;;;15.60;68.00;;;;;;5804802;24;20065;-96
2023/05/31 15:22:39;;;;;;;10.98;3.67;;;15.60;68.00;;;;;;5796169;24;20018;-93
2023/05/31 15:29:07;;;;;;;14.20;4.20;;;15.30;68.60;;;;;;5827412;24;20056;-96
2023/05/31 15:59:15;;;;;;;14.43;6.40;;;14.60;68.60;;;;;;5741908;24;20031;-96
2023/05/31 16:10:04;;;;;;;;;;;;;;;;;;;;;
2023/05/31 16:12:36;;;;;;;17.27;9.75;;;13.60;70.40;;;;;;5897993;24;20029;-96
2023/05/31 16:30:08;;;;;;;14.60;8.23;;;13.10;71.10;;;;;;5867340;24;20032;-96
2023/05/31 16:33:02;;;;;;;17.13;9.50;;;13.10;71.10;;;;;;5809881;24;20089;-95
2023/05/31 16:47:19;;;;;;;14.00;7.07;;;12.80;71.40;;;;;;5827797;24;20087;-96
2023/05/31 16:50:14;;;;;;;12.45;6.50;;;12.80;71.90;;;;;;5717300;24;20031;-96
2023/05/31 17:08:23;;;;;;;15.15;7.18;;;12.50;71.90;;;;;;6013655;23;20042;-96
2023/05/31 17:11:16;;;;;;;18.10;6.80;;;12.50;71.70;;;;;;5961628;23;20043;-96
2023/05/31 17:21:13;;;;;;;15.60;6.57;;;12.50;71.60;;;;;;6156724;22;20724;-95
2023/05/31 17:27:36;;;;;;;16.60;6.82;;;12.50;71.50;;;;;;6033361;23;20089;-94
2023/05/31 17:33:57;;;;;;;17.23;6.47;;;12.50;71.80;;;;;;5979897;23;20059;-94
2023/05/31 17:37:20;;;;;;;;;;;;;;;;;;;;;
2023/05/31 17:40:54;;;;;;;;;;;;;;;;;;;;;
2023/05/31 17:44:10;;;;;;;;;;;;;;;;;;;;;
2023/05/31 17:47:28;;;;;;;10.55;5.95;;;12.30;71.50;;;;;;5953249;23;20371;-93
2023/05/31 17:50:37;;;;;;;14.98;6.57;;;12.40;71.60;;;;;;5972241;23;20027;-94
2023/05/31 17:54:00;;;;;;;;;;;;;;;;;;;;;
2023/05/31 18:12:26;;;;;;;11.03;4.80;;;12.10;71.70;;;;;;5818158;24;20034;-94
2023/05/31 18:27:42;;;;;;;;;;;;;;;;;;;;;
2023/05/31 18:37:25;;;;;;;8.88;4.18;;;11.90;72.30;;;;;;5853987;24;20570;-96
2023/05/31 18:40:58;;;;;;;11.63;4.43;;;11.90;72.30;;;;;;5807489;24;20028;-95
2023/05/31 18:44:26;;;;;;;10.35;4.50;;;11.80;72.40;;;;;;5826627;24;20022;-96
2023/05/31 18:46:52;;;;;;;10.77;3.88;;;11.70;72.40;;;;;;5762676;24;20111;-96
2023/05/31 18:49:56;;;;;;;12.65;4.82;;;11.70;72.30;;;;;;5770110;24;20059;-96
2023/05/31 18:53:32;;;;;;;11.60;4.53;;;11.70;72.80;;;;;;5830244;24;20030;-96
2023/05/31 18:56:20;;;;;;;11.23;4.18;;;11.60;72.80;;;;;;5793772;24;20359;-96
2023/05/31 18:58:49;;;;;;;10.07;4.43;;;11.50;72.80;;;;;;5802355;24;20061;-96
2023/05/31 19:01:24;;;;;;;9.50;4.28;;;11.50;72.80;;;;;;5831978;24;20061;-94
2023/05/31 19:11:28;;;;;;;13.82;4.63;;;11.40;73.40;;;;;;5695778;25;20055;-96
2023/05/31 19:25:59;;;;;;;17.92;4.80;;;11.40;73.70;;;;;;5750561;24;20058;-93
2023/05/31 19:32:57;;;;;;;13.20;4.57;;;11.40;74.20;;;;;;5732080;24;20081;-93
2023/05/31 19:46:59;;;;;;;;;;;;;;;;;;;;;
2023/05/31 19:50:22;;;;;;;;;;;11.30;74.30;;;;;;5992127;23;20032;-95
2023/05/31 20:00:48;;;;;;;12.35;4.30;;;11.20;74.70;;;;;;5691250;25;20028;-95
2023/05/31 20:04:19;;;;;;;;;;;;;;;;;;;;;
2023/05/31 20:07:26;;;;;;;12.33;4.77;;;11.20;74.90;;;;;;5685845;24;20132;-96
2023/05/31 20:12:56;;;;;;;13.35;4.40;;;11.20;74.70;;;;;;5871818;24;20054;-94
2023/05/31 20:15:27;;;;;;;13.10;5.05;;;11.20;74.60;;;;;;5907440;24;20448;-96
2023/05/31 20:18:03;;;;;;;;;;;;;;;;;;;;;
2023/05/31 20:20:35;;;;;;;12.25;5.30;;;11.10;74.70;;;;;;5928721;24;20393;-96
2023/05/31 20:26:04;;;;;;;11.63;5.17;;;11.10;74.70;;;;;;5884524;24;20089;-96
2023/05/31 20:28:43;;;;;;;12.68;5.03;;;11.00;74.80;;;;;;5863899;24;20123;-96
2023/05/31 20:31:15;;;;;;;11.90;5.57;;;11.00;74.80;;;;;;5987726;23;20019;-96
2023/05/31 20:33:47;;;;;;;12.45;5.88;;;10.90;74.80;;;;;;5861304;23;20031;-96
2023/05/31 20:36:47;;;;;;;15.00;6.75;;;10.90;75.00;;;;;;5872945;23;20292;-96
2023/05/31 20:39:34;;;;;;;17.13;6.07;;;10.90;75.30;;;;;;5983196;23;20024;-96
2023/05/31 20:42:04;;;;;;;16.30;5.85;;;10.90;75.20;;;;;;5947118;23;20179;-96
2023/05/31 20:44:33;;;;;;;11.85;6.40;;;10.90;75.10;;;;;;5985640;23;20019;-96
2023/05/31 20:49:57;;;;;;;13.95;5.70;;;11.00;75.10;;;;;;5941987;24;20060;-96
2023/05/31 20:56:18;;;;;;;17.30;6.25;;;10.90;75.00;;;;;;5874548;24;20120;-95
2023/05/31 20:58:54;;;;;;;11.63;5.90;;;10.80;75.00;;;;;;5871091;24;20037;-94
2023/05/31 21:01:43;;;;;;;16.60;6.60;;;10.90;74.90;;;;;;5825615;24;20201;-91
2023/05/31 21:04:14;;;;;;;17.60;6.85;;;10.80;74.90;;;;;;5886993;24;20479;-90
2023/05/31 21:06:43;;;;;;;11.30;5.93;;;10.90;74.90;;;;;;6039610;23;20011;-92
2023/05/31 21:09:09;;;;;;;13.73;5.78;;;10.90;74.90;;;;;;6015204;23;20038;-90
2023/05/31 21:11:35;;;;;;;12.85;6.55;;;10.90;74.80;;;;;;6060053;23;20041;-89
2023/05/31 21:14:06;;;;;;;14.50;6.47;;;10.90;74.80;;;;;;6043906;23;20046;-91
2023/05/31 21:16:34;;;;;;;19.38;6.97;;;10.90;74.70;;;;;;6064731;23;20266;-92
2023/05/31 21:19:14;;;;;;;16.60;7.07;;;10.90;74.80;;;;;;6042365;23;20029;-90
2023/05/31 21:21:40;;;;;;;16.67;6.57;;;10.90;74.80;;;;;;6048152;23;20065;-90
2023/05/31 21:24:06;;;;;;;15.15;6.68;;;11.00;74.80;;;;;;6030309;23;20680;-90
2023/05/31 21:26:34;;;;;;;16.30;6.43;;;10.90;74.80;;;;;;6029102;23;20017;-92
2023/05/31 21:29:26;;;;;;;14.65;6.13;;;10.90;74.80;;;;;;6090618;23;20038;-94
2023/05/31 21:31:52;;;;;;;16.45;6.28;;;10.90;74.80;;;;;;6074366;23;20025;-90
2023/05/31 21:34:21;;;;;;;15.65;6.15;;;10.90;74.80;;;;;;6046362;23;20018;-91
2023/05/31 21:37:02;;;;;;;14.20;6.05;;;10.90;74.80;;;;;;6087382;23;20461;-91
2023/05/31 21:39:38;;;;;;;14.32;6.68;;;11.00;74.70;;;;;;6048432;23;20021;-90
2023/05/31 21:42:07;;;;;;;14.35;6.43;;;10.90;74.70;;;;;;6071550;23;20319;-90
2023/05/31 21:44:40;;;;;;;17.33;6.75;;;10.90;74.70;;;;;;6082013;23;20027;-92
2023/05/31 21:47:06;;;;;;;15.90;5.95;;;10.90;74.90;;;;;;6086295;23;20093;-89
2023/05/31 21:49:34;;;;;;;15.13;6.05;;;10.90;74.80;;;;;;6049084;23;20014;-89
2023/05/31 21:52:15;;;;;;;11.38;5.30;;;10.90;74.70;;;;;;6073533;23;20022;-92
2023/05/31 21:54:46;;;;;;;12.05;5.40;;;10.90;74.70;;;;;;6059921;23;20155;-90
2023/05/31 21:57:12;;;;;;;15.20;6.05;;;10.90;74.60;;;;;;6018371;23;20356;-90
2023/05/31 21:59:43;;;;;;;10.48;5.10;;;10.90;74.60;;;;;;6073067;23;20018;-91
2023/05/31 22:02:16;;;;;;;12.60;5.32;;;10.90;74.60;;;;;;6079408;23;20022;-89
2023/05/31 22:04:45;;;;;;;16.55;6.15;;;10.90;74.50;;;;;;6097175;23;20044;-90
2023/05/31 22:07:11;;;;;;;13.80;5.85;;;10.90;74.60;;;;;;6042063;23;20045;-89
2023/05/31 22:09:45;;;;;;;17.03;6.47;;;10.80;74.50;;;;;;6053135;23;20018;-90
2023/05/31 22:12:20;;;;;;;15.45;7.10;;;10.90;74.50;;;;;;6092388;23;20536;-90
2023/05/31 22:14:54;;;;;;;18.30;6.20;;;10.80;74.50;;;;;;6104919;23;20105;-90
2023/05/31 22:17:25;;;;;;;18.38;6.53;;;10.80;74.40;;;;;;6061953;23;20022;-91
2023/05/31 22:19:59;;;;;;;15.45;6.82;;;10.80;74.40;;;;;;6098803;23;20026;-90
2023/05/31 22:22:36;;;;;;;14.10;6.90;;;10.80;74.40;;;;;;6073210;23;20082;-92
2023/05/31 22:25:05;;;;;;;16.23;6.80;;;10.80;74.40;;;;;;6061049;23;20030;-91
2023/05/31 22:27:41;;;;;;;20.20;6.77;;;10.80;74.50;;;;;;6089241;23;20018;-94
2023/05/31 22:30:28;;;;;;;17.63;6.97;;;10.80;74.50;;;;;;6082867;23;20022;-91
2023/05/31 22:32:55;;;;;;;18.23;6.80;;;10.80;74.50;;;;;;6080687;23;20477;-89
2023/05/31 22:35:25;;;;;;;14.38;6.43;;;10.80;74.50;;;;;;6081204;23;20054;-90
2023/05/31 22:38:02;;;;;;;14.88;6.10;;;10.80;74.40;;;;;;6070117;23;20022;-91
2023/05/31 22:40:33;;;;;;;22.45;6.80;;;10.80;74.50;;;;;;6072195;23;20127;-90
2023/05/31 22:43:02;;;;;;;15.27;6.40;;;10.80;74.50;;;;;;6095218;23;20061;-89
2023/05/31 22:45:28;;;;;;;17.85;6.28;;;10.80;74.50;;;;;;6072519;23;20022;-90
2023/05/31 22:47:54;;;;;;;15.52;6.50;;;10.80;74.40;;;;;;6039212;23;20025;-89
2023/05/31 22:50:20;;;;;;;15.70;6.38;;;10.80;74.50;;;;;;6096569;23;20018;-92
2023/05/31 22:52:52;;;;;;;17.60;6.95;;;10.80;74.50;;;;;;6058676;23;20022;-92
2023/05/31 22:55:19;;;;;;;13.77;6.53;;;10.80;74.50;;;;;;6072905;23;20019;-92